createdAt,value
2023-04-04T00:02:04.004Z,2.27
2023-04-04T00:07:06.299Z,1.90
2023-04-04T00:12:08.798Z,1.93
2023-04-04T00:17:11.157Z,2.00
2023-04-04T00:22:16.574Z,1.77
2023-04-04T00:27:18.940Z,2.13
2023-04-04T00:32:21.485Z,1.97
2023-04-04T00:37:23.914Z,2.10
2023-04-04T00:42:27.817Z,2.00
2023-04-04T00:47:34.030Z,2.20
2023-04-04T00:52:37.520Z,2.10
2023-04-04T00:57:40.147Z,2.13
2023-04-04T01:02:42.766Z,2.20
2023-04-04T01:07:45.216Z,2.00
2023-04-04T01:12:48.095Z,1.70
2023-04-04T01:17:55.587Z,1.87
2023-04-04T01:22:59.530Z,2.10
2023-04-04T01:28:02.628Z,2.10
2023-04-04T01:33:14.046Z,1.70
2023-04-04T01:38:41.958Z,1.83
2023-04-04T01:43:47.865Z,1.93
2023-04-04T01:48:50.975Z,2.03
2023-04-04T01:53:58.039Z,2.10
2023-04-04T01:59:01.525Z,1.80
2023-04-04T02:04:04.853Z,1.83
2023-04-04T02:09:07.262Z,1.40
2023-04-04T02:14:09.857Z,2.43
2023-04-04T02:19:13.108Z,2.27
2023-04-04T02:24:15.531Z,1.80
2023-04-04T02:29:18.029Z,1.90
2023-04-04T02:34:20.537Z,1.80
2023-04-04T02:39:25.227Z,2.10
2023-04-04T02:44:27.699Z,1.73
2023-04-04T02:49:31.907Z,1.67
2023-04-04T02:54:34.797Z,1.53
2023-04-04T02:59:39.294Z,1.53
2023-04-04T03:04:41.676Z,1.40
2023-04-04T03:09:46.910Z,1.73
2023-04-04T03:14:49.605Z,1.70
2023-04-04T03:19:52.927Z,1.40
2023-04-04T03:24:55.749Z,1.40
2023-04-04T03:29:59.279Z,1.50
2023-04-04T03:35:07.201Z,1.70
2023-04-04T03:40:10.122Z,1.57
2023-04-04T03:45:12.515Z,1.43
2023-04-04T03:50:17.886Z,1.40
2023-04-04T03:55:26.399Z,1.33
2023-04-04T04:00:33.718Z,1.47
2023-04-04T04:05:36.008Z,1.40
2023-04-04T04:10:38.539Z,1.50
2023-04-04T04:15:41.224Z,1.40
2023-04-04T04:20:56.512Z,1.60
2023-04-04T04:25:59.021Z,1.50
2023-04-04T04:31:10.617Z,2.30
2023-04-04T04:36:23.085Z,2.43
2023-04-04T04:41:51.426Z,2.23
2023-04-04T04:46:54.324Z,3.40
2023-04-04T04:51:57.148Z,2.70
2023-04-04T04:57:01.462Z,2.63
2023-04-04T05:02:04.826Z,2.20
2023-04-04T05:07:12.846Z,1.80
2023-04-04T05:12:19.016Z,2.17
2023-04-04T05:17:24.415Z,1.93
2023-04-04T05:22:45.807Z,1.90
2023-04-04T05:27:53.035Z,1.77
2023-04-04T05:32:57.083Z,1.93
2023-04-04T05:38:03.518Z,2.17
2023-04-04T05:43:09.574Z,2.17
2023-04-04T05:48:23.917Z,2.40
2023-04-04T05:53:28.848Z,1.97
2023-04-04T05:58:32.018Z,1.77
2023-04-04T06:03:36.137Z,2.87
2023-04-04T06:08:52.890Z,4.57
2023-04-04T06:13:56.475Z,2.17
2023-04-04T06:19:00.609Z,2.17
2023-04-04T06:24:03.244Z,2.50
2023-04-04T06:29:05.946Z,2.27
2023-04-04T06:34:12.335Z,2.20
2023-04-04T06:39:34.286Z,2.43
2023-04-04T06:44:39.462Z,1.73
2023-04-04T06:49:42.102Z,1.77
2023-04-04T06:54:44.729Z,1.53
2023-04-04T06:59:47.378Z,2.00
2023-04-04T07:04:49.757Z,1.50
2023-04-04T07:09:52.111Z,2.00
2023-04-04T07:14:54.500Z,1.63
2023-04-04T07:19:56.777Z,1.50
2023-04-04T07:24:59.200Z,1.40
2023-04-04T07:30:03.189Z,1.40
2023-04-04T07:35:08.174Z,1.60
2023-04-04T07:40:10.903Z,1.27
2023-04-04T07:45:14.075Z,1.30
2023-04-04T07:50:16.955Z,1.57
2023-04-04T07:55:20.920Z,1.43
2023-04-04T08:00:25.868Z,0.73
2023-04-04T08:05:28.718Z,1.05
2023-04-04T08:10:31.461Z,0.90
2023-04-04T08:15:33.906Z,1.20
2023-04-04T08:20:36.524Z,2.17
2023-04-04T08:25:39.491Z,0.83
2023-04-04T08:30:42.004Z,0.73
2023-04-04T08:35:44.455Z,1.03
2023-04-04T08:40:48.033Z,4.20
2023-04-04T08:45:53.526Z,0.73
2023-04-04T08:50:59.731Z,1.10
2023-04-04T08:56:02.882Z,1.00
2023-04-04T09:01:06.838Z,0.90
2023-04-04T09:06:10.221Z,1.37
2023-04-04T09:11:13.589Z,0.93
2023-04-04T09:16:15.995Z,0.80
2023-04-04T09:21:19.662Z,0.73
2023-04-04T09:26:21.998Z,1.47
2023-04-04T09:31:25.065Z,1.00
2023-04-04T09:36:31.593Z,1.50
2023-04-04T09:41:36.107Z,1.50
2023-04-04T09:46:39.822Z,1.17
2023-04-04T09:51:43.370Z,1.07
2023-04-04T09:56:46.197Z,1.10
2023-04-04T10:01:51.438Z,1.20
2023-04-04T10:06:55.966Z,0.90
2023-04-04T10:12:11.593Z,0.97
2023-04-04T10:17:23.883Z,0.90
2023-04-04T10:28:20.138Z,0.80
2023-04-04T10:33:54.337Z,1.10
2023-04-04T10:39:10.759Z,1.03
2023-04-04T10:50:12.380Z,1.10
2023-04-04T10:55:18.746Z,1.40
2023-04-04T11:00:24.786Z,0.80
2023-04-04T11:05:41.514Z,1.00
2023-04-04T11:10:45.568Z,1.00
2023-04-04T11:15:59.985Z,1.37
2023-04-04T11:21:05.217Z,1.30
2023-04-04T11:26:08.653Z,0.93
2023-04-04T11:31:20.617Z,1.20
2023-04-04T11:36:39.082Z,0.87
2023-04-04T11:41:47.634Z,1.07
2023-04-04T11:46:56.362Z,0.80
2023-04-04T11:51:58.791Z,0.80
2023-04-04T11:57:03.458Z,1.10
2023-04-04T12:02:06.657Z,1.10
2023-04-04T12:07:09.666Z,1.40
2023-04-04T12:12:16.825Z,1.00
2023-04-04T12:17:19.225Z,0.97
2023-04-04T12:22:21.525Z,1.10
2023-04-04T12:27:26.238Z,4.63
2023-04-04T12:32:37.210Z,0.93
2023-04-04T12:37:43.364Z,1.00
2023-04-04T12:42:49.282Z,0.83
2023-04-04T12:47:55.723Z,0.90
2023-04-04T12:53:18.464Z,1.80
2023-04-04T12:58:34.273Z,0.80
2023-04-04T13:03:39.620Z,1.23
2023-04-04T13:08:52.632Z,1.03
2023-04-04T13:14:03.516Z,1.30
2023-04-04T13:19:11.164Z,1.30
2023-04-04T13:24:13.796Z,1.23
2023-04-04T13:29:16.625Z,1.23
2023-04-04T13:34:24.386Z,1.23
2023-04-04T13:39:29.354Z,1.27
2023-04-04T13:44:31.878Z,1.30
2023-04-04T13:50:04.187Z,1.40
2023-04-04T13:55:09.643Z,1.47
2023-04-04T14:00:13.153Z,1.40
2023-04-04T14:05:16.704Z,1.70
2023-04-04T14:10:19.578Z,1.30
2023-04-04T14:15:22.591Z,1.63
2023-04-04T14:20:25.050Z,1.37
2023-04-04T14:25:27.453Z,1.30
2023-04-04T14:30:30.049Z,0.90
2023-04-04T14:35:32.405Z,1.63
2023-04-04T14:40:34.882Z,4.90
2023-04-04T14:45:37.467Z,3.43
2023-04-04T14:50:40.351Z,21.20
2023-04-04T14:55:42.838Z,6.37
2023-04-04T15:00:49.098Z,3.13
2023-04-04T15:05:51.582Z,1.60
2023-04-04T15:10:54.922Z,1.27
2023-04-04T15:15:57.357Z,13.63
2023-04-04T15:20:59.812Z,1.60
2023-04-04T15:26:03.066Z,1.60
2023-04-04T15:31:05.446Z,1.60
2023-04-04T15:36:07.836Z,1.97
2023-04-04T15:41:10.632Z,4.90
2023-04-04T15:46:13.475Z,2.30
2023-04-04T15:51:16.324Z,2.03
2023-04-04T15:56:18.631Z,2.13
2023-04-04T16:01:21.517Z,1.83
2023-04-04T16:06:24.196Z,1.70
2023-04-04T16:11:26.613Z,2.07
2023-04-04T16:16:29.088Z,5.70
2023-04-04T16:21:32.241Z,11.50
2023-04-04T16:26:35.588Z,5.00
2023-04-04T16:31:38.716Z,1.43
2023-04-04T16:36:41.131Z,16.17
2023-04-04T16:41:43.450Z,15.00
2023-04-04T16:46:47.225Z,7.73
2023-04-04T16:51:49.592Z,5.03
2023-04-04T16:56:51.951Z,11.37
2023-04-04T17:01:54.207Z,3.80
2023-04-04T17:06:56.911Z,19.50
2023-04-04T17:11:59.827Z,50.80
2023-04-04T17:17:02.138Z,8.53
2023-04-04T17:22:04.526Z,4.60
2023-04-04T17:27:07.578Z,3.97
2023-04-04T17:32:10.245Z,8.20
2023-04-04T17:37:13.305Z,3.13
2023-04-04T17:42:15.641Z,3.33
2023-04-04T17:47:17.952Z,17.30
2023-04-04T17:52:20.445Z,75.50
2023-04-04T17:57:22.755Z,38.00
2023-04-04T18:02:25.056Z,30.57
2023-04-04T18:07:27.833Z,11.03
2023-04-04T18:12:30.560Z,2.90
2023-04-04T18:17:33.429Z,2.97
2023-04-04T18:22:35.787Z,2.87
2023-04-04T18:27:38.296Z,7.33
2023-04-04T18:32:40.876Z,20.23
2023-04-04T18:37:43.277Z,19.50
2023-04-04T18:42:45.766Z,10.83
2023-04-04T18:47:48.147Z,8.37
2023-04-04T18:52:50.467Z,12.40
2023-04-04T18:57:52.773Z,11.10
2023-04-04T19:02:55.346Z,10.10
2023-04-04T19:08:01.355Z,13.50
2023-04-04T19:13:03.797Z,21.97
2023-04-04T19:18:06.220Z,19.30
2023-04-04T19:23:09.007Z,14.50
2023-04-04T19:28:11.526Z,16.60
2023-04-04T19:33:18.606Z,28.33
2023-04-04T19:38:32.976Z,77.13
2023-04-04T19:43:35.961Z,40.87
2023-04-04T19:48:44.390Z,58.90
2023-04-04T19:53:49.985Z,28.70
2023-04-04T19:59:02.195Z,47.30
2023-04-04T20:04:09.294Z,26.17
2023-04-04T20:09:33.012Z,17.40
2023-04-04T20:14:35.603Z,5.43
2023-04-04T20:19:38.125Z,4.40
2023-04-04T20:24:42.366Z,3.20
2023-04-04T20:29:44.658Z,3.33
2023-04-04T20:34:49.267Z,3.40
2023-04-04T20:40:13.207Z,2.80
2023-04-04T20:45:31.567Z,3.70
2023-04-04T20:50:33.876Z,3.40
2023-04-04T20:55:36.339Z,3.00
2023-04-04T21:00:41.608Z,2.67
2023-04-04T21:05:44.077Z,2.93
2023-04-04T21:10:50.902Z,3.37
2023-04-04T21:15:59.472Z,8.50
2023-04-04T21:21:19.261Z,10.53
2023-04-04T21:26:37.903Z,6.70
2023-04-04T21:31:41.328Z,12.83
2023-04-04T21:36:45.004Z,8.60
2023-04-04T21:41:51.927Z,9.70
2023-04-04T21:46:55.312Z,6.83
2023-04-04T21:51:57.718Z,7.47
2023-04-04T21:57:00.039Z,6.97
2023-04-04T22:02:02.378Z,5.63
2023-04-04T22:07:04.678Z,4.70
2023-04-04T22:12:15.269Z,5.00
2023-04-04T22:17:23.520Z,8.40
2023-04-04T22:22:29.859Z,7.87
2023-04-04T22:27:37.967Z,6.53
2023-04-04T22:32:43.842Z,6.50
2023-04-04T22:37:46.217Z,9.53
2023-04-04T22:42:48.522Z,11.27
2023-04-04T22:47:51.418Z,5.83
2023-04-04T22:52:54.880Z,4.93
2023-04-04T22:57:57.181Z,5.03
2023-04-04T23:03:02.228Z,5.57
2023-04-04T23:08:04.796Z,6.87
2023-04-04T23:13:07.446Z,7.60
2023-04-04T23:18:10.248Z,5.77
2023-04-04T23:23:12.608Z,8.70
2023-04-04T23:28:14.899Z,5.57
2023-04-04T23:33:17.174Z,4.77
2023-04-04T23:38:19.420Z,4.77
2023-04-04T23:43:21.897Z,8.07
2023-04-04T23:48:24.265Z,8.43
2023-04-04T23:53:27.198Z,6.00
2023-04-04T23:58:29.975Z,8.43
